createdAt,value
2022-10-03T00:01:59.499Z,9.10
2022-10-03T00:04:53.189Z,13.10
2022-10-03T00:09:00.395Z,12.18
2022-10-03T00:18:14.479Z,14.27
2022-10-03T00:21:02.712Z,12.65
2022-10-03T00:23:46.635Z,12.20
2022-10-03T00:26:30.879Z,15.27
2022-10-03T00:29:24.645Z,13.05
2022-10-03T00:32:13.143Z,11.75
2022-10-03T00:35:04.047Z,11.20
2022-10-03T00:37:41.985Z,11.57
2022-10-03T00:41:02.089Z,12.02
2022-10-03T00:44:38.229Z,7.97
2022-10-03T00:47:43.820Z,7.25
2022-10-03T00:50:34.721Z,9.63
2022-10-03T00:53:27.292Z,9.85
2022-10-03T00:56:21.752Z,6.00
2022-10-03T00:59:13.109Z,8.82
2022-10-03T01:06:33.377Z,8.95
2022-10-03T01:09:36.805Z,9.43
2022-10-03T01:12:40.908Z,8.43
2022-10-03T01:15:26.699Z,6.78
2022-10-03T01:18:15.263Z,7.22
2022-10-03T01:20:59.555Z,6.65
2022-10-03T01:24:06.689Z,9.50
2022-10-03T01:26:54.162Z,5.78
2022-10-03T01:30:00.426Z,8.38
2022-10-03T01:32:39.988Z,6.57
2022-10-03T01:35:23.942Z,7.15
2022-10-03T01:38:06.517Z,7.57
2022-10-03T01:40:44.191Z,6.07
2022-10-03T01:43:21.253Z,8.60
2022-10-03T01:46:07.472Z,8.95
2022-10-03T01:48:48.889Z,8.25
2022-10-03T01:51:24.182Z,10.95
2022-10-03T01:54:19.807Z,8.00
2022-10-03T01:56:59.552Z,6.57
2022-10-03T01:59:43.977Z,7.97
2022-10-03T02:02:28.856Z,8.20
2022-10-03T02:05:13.140Z,7.47
2022-10-03T02:07:52.836Z,6.65
2022-10-03T02:15:01.699Z,8.30
2022-10-03T02:17:54.417Z,7.30
2022-10-03T02:20:36.517Z,7.88
2022-10-03T02:23:27.275Z,6.78
2022-10-03T02:26:21.623Z,7.93
2022-10-03T02:29:24.756Z,6.43
2022-10-03T02:32:30.674Z,11.30
2022-10-03T02:36:01.966Z,5.28
2022-10-03T02:39:00.021Z,5.93
2022-10-03T02:42:14.694Z,9.02
2022-10-03T02:45:43.402Z,9.07
2022-10-03T02:49:05.652Z,6.40
2022-10-03T02:52:14.190Z,12.00
2022-10-03T02:55:11.948Z,5.30
2022-10-03T02:58:28.552Z,5.85
2022-10-03T03:01:45.568Z,8.32
2022-10-03T03:05:08.466Z,6.97
2022-10-03T03:08:17.551Z,7.10
2022-10-03T03:11:28.387Z,7.93
2022-10-03T03:14:41.748Z,6.65
2022-10-03T03:17:28.168Z,9.02
2022-10-03T03:20:24.970Z,5.28
2022-10-03T03:23:30.002Z,4.65
2022-10-03T03:26:25.284Z,8.27
2022-10-03T03:29:08.614Z,8.20
2022-10-03T03:31:47.807Z,6.72
2022-10-03T03:34:27.776Z,6.25
2022-10-03T03:37:07.253Z,8.00
2022-10-03T03:40:08.079Z,8.98
2022-10-03T03:43:12.292Z,9.25
2022-10-03T03:46:00.776Z,5.78
2022-10-03T03:48:50.490Z,4.75
2022-10-03T03:51:35.104Z,8.45
2022-10-03T03:54:37.980Z,5.80
2022-10-03T03:57:40.270Z,5.80
2022-10-03T04:00:17.453Z,7.40
2022-10-03T04:03:31.814Z,6.38
2022-10-03T04:10:53.747Z,7.40
2022-10-03T04:13:48.095Z,6.88
2022-10-03T04:16:58.711Z,7.93
2022-10-03T04:19:44.303Z,6.35
2022-10-03T04:22:46.529Z,4.70
2022-10-03T04:25:47.296Z,10.38
2022-10-03T04:28:39.827Z,6.35
2022-10-03T04:31:27.916Z,6.68
2022-10-03T04:34:20.323Z,9.45
2022-10-03T04:37:16.526Z,8.85
2022-10-03T04:39:58.738Z,10.82
2022-10-03T04:42:46.392Z,10.23
2022-10-03T04:45:39.892Z,7.28
2022-10-03T04:48:19.534Z,8.73
2022-10-03T04:55:35.352Z,7.35
2022-10-03T04:58:20.472Z,9.10
2022-10-03T05:01:05.926Z,7.88
2022-10-03T05:03:48.447Z,7.13
2022-10-03T05:06:38.212Z,6.03
2022-10-03T05:09:27.686Z,6.93
2022-10-03T05:12:13.270Z,8.57
2022-10-03T05:15:14.586Z,6.55
2022-10-03T05:17:58.735Z,7.70
2022-10-03T05:20:48.524Z,9.40
2022-10-03T05:23:40.160Z,7.22
2022-10-03T05:26:43.982Z,8.48
2022-10-03T05:29:22.714Z,7.90
2022-10-03T05:32:13.745Z,8.13
2022-10-03T05:35:16.366Z,9.23
2022-10-03T05:38:19.224Z,9.85
2022-10-03T05:41:03.393Z,8.77
2022-10-03T05:43:58.198Z,9.68
2022-10-03T05:46:58.184Z,7.53
2022-10-03T05:49:56.048Z,7.78
2022-10-03T05:52:50.462Z,5.82
2022-10-03T05:55:43.923Z,8.50
2022-10-03T05:58:58.243Z,6.38
2022-10-03T06:02:07.179Z,7.90
2022-10-03T06:05:39.594Z,6.82
2022-10-03T06:08:45.950Z,4.63
2022-10-03T06:11:35.858Z,9.55
2022-10-03T06:14:30.217Z,7.88
2022-10-03T06:17:24.508Z,8.68
2022-10-03T06:20:12.304Z,6.97
2022-10-03T06:23:16.846Z,8.05
2022-10-03T06:26:39.333Z,7.03
2022-10-03T06:30:05.687Z,7.28
2022-10-03T06:33:27.331Z,9.07
2022-10-03T06:36:33.641Z,7.35
2022-10-03T06:40:14.676Z,7.38
2022-10-03T06:43:34.596Z,5.57
2022-10-03T06:51:04.217Z,4.60
2022-10-03T06:54:39.923Z,7.55
2022-10-03T06:57:32.886Z,6.40
2022-10-03T07:00:20.224Z,5.10
2022-10-03T07:03:40.913Z,7.97
2022-10-03T07:07:07.484Z,7.22
2022-10-03T07:10:20.426Z,10.70
2022-10-03T07:13:35.235Z,8.02
2022-10-03T07:16:58.392Z,6.88
2022-10-03T07:20:08.601Z,9.88
2022-10-03T07:23:25.668Z,6.38
2022-10-03T07:26:56.756Z,4.47
2022-10-03T07:30:08.277Z,5.57
2022-10-03T07:33:27.725Z,5.35
2022-10-03T07:37:08.925Z,6.30
2022-10-03T07:40:22.667Z,4.28
2022-10-03T07:43:31.042Z,5.40
2022-10-03T07:46:45.960Z,4.22
2022-10-03T07:54:30.174Z,5.90
2022-10-03T07:57:32.754Z,4.28
2022-10-03T08:00:24.414Z,5.25
2022-10-03T08:03:57.559Z,4.15
2022-10-03T08:11:26.016Z,4.20
2022-10-03T08:14:17.692Z,3.92
2022-10-03T08:18:26.970Z,7.10
2022-10-03T08:20:59.732Z,4.72
2022-10-03T08:24:15.819Z,3.65
2022-10-03T08:27:27.296Z,4.15
2022-10-03T08:30:27.818Z,3.00
2022-10-03T08:38:23.888Z,3.55
2022-10-03T08:41:44.096Z,5.63
2022-10-03T08:45:03.969Z,3.42
2022-10-03T08:48:13.797Z,3.72
2022-10-03T08:51:04.321Z,3.38
2022-10-03T08:54:27.480Z,3.88
2022-10-03T08:57:25.634Z,4.70
2022-10-03T09:00:12.328Z,3.42
2022-10-03T09:03:59.257Z,5.47
2022-10-03T09:07:24.108Z,5.05
2022-10-03T09:10:28.336Z,3.88
2022-10-03T09:13:42.192Z,5.97
2022-10-03T09:25:41.621Z,4.35
2022-10-03T09:29:20.228Z,5.82
2022-10-03T09:32:44.586Z,5.60
2022-10-03T09:35:48.376Z,6.95
2022-10-03T09:39:22.996Z,5.35
2022-10-03T09:42:47.933Z,5.32
2022-10-03T09:45:36.968Z,7.10
2022-10-03T09:49:03.606Z,5.63
2022-10-03T09:57:01.643Z,7.88
2022-10-03T09:59:56.529Z,5.03
2022-10-03T10:03:04.422Z,6.07
2022-10-03T10:06:09.249Z,5.80
2022-10-03T10:09:22.006Z,5.05
2022-10-03T10:12:37.956Z,5.40
2022-10-03T10:16:01.803Z,6.22
2022-10-03T10:19:13.344Z,5.95
2022-10-03T10:22:26.009Z,7.65
2022-10-03T10:25:26.730Z,7.25
2022-10-03T10:28:36.424Z,4.97
2022-10-03T10:31:58.038Z,5.43
2022-10-03T10:35:30.204Z,4.30
2022-10-03T10:38:28.240Z,6.95
2022-10-03T10:41:53.637Z,5.50
2022-10-03T10:46:06.172Z,3.95
2022-10-03T10:49:47.072Z,3.25
2022-10-03T10:52:50.558Z,2.53
2022-10-03T10:56:19.048Z,4.72
2022-10-03T11:04:35.912Z,3.45
2022-10-03T11:07:54.161Z,1.98
2022-10-03T11:10:37.727Z,1.55
2022-10-03T11:14:03.440Z,2.47
2022-10-03T11:17:24.000Z,4.55
2022-10-03T11:20:51.463Z,2.80
2022-10-03T11:24:16.683Z,3.33
2022-10-03T11:27:44.164Z,2.05
2022-10-03T11:31:14.167Z,3.70
2022-10-03T11:34:34.296Z,2.33
2022-10-03T11:37:16.651Z,3.58
2022-10-03T11:39:58.889Z,2.35
2022-10-03T11:42:51.499Z,4.45
2022-10-03T11:45:33.292Z,2.35
2022-10-03T11:48:30.769Z,1.52
2022-10-03T11:51:08.115Z,1.85
2022-10-03T11:53:49.806Z,1.13
2022-10-03T11:56:41.042Z,1.40
2022-10-03T11:59:35.244Z,1.83
2022-10-03T12:02:17.773Z,2.63
2022-10-03T12:04:58.788Z,1.70
2022-10-03T12:08:04.637Z,2.42
2022-10-03T12:11:02.880Z,3.58
2022-10-03T12:15:11.321Z,2.35
2022-10-03T12:17:49.983Z,2.08
2022-10-03T12:20:28.756Z,1.42
2022-10-03T12:23:09.734Z,3.88
2022-10-03T12:25:44.882Z,2.25
2022-10-03T12:28:23.072Z,3.53
2022-10-03T12:31:01.360Z,2.92
2022-10-03T12:33:51.304Z,1.75
2022-10-03T12:38:03.294Z,1.08
2022-10-03T12:40:38.822Z,4.07
2022-10-03T12:43:34.378Z,2.78
2022-10-03T12:46:15.034Z,2.70
2022-10-03T12:48:56.189Z,1.60
2022-10-03T12:51:48.433Z,1.38
2022-10-03T12:54:41.136Z,1.75
2022-10-03T12:57:49.245Z,3.05
2022-10-03T13:00:28.284Z,2.05
2022-10-03T13:03:26.847Z,4.13
2022-10-03T13:07:03.333Z,2.60
2022-10-03T13:10:03.243Z,5.38
2022-10-03T13:14:10.188Z,3.00
2022-10-03T13:16:51.091Z,3.40
2022-10-03T13:19:27.249Z,2.47
2022-10-03T13:22:14.129Z,2.13
2022-10-03T13:24:53.837Z,5.97
2022-10-03T13:27:36.344Z,2.75
2022-10-03T13:30:14.976Z,3.05
2022-10-03T13:32:51.346Z,3.58
2022-10-03T13:35:54.169Z,3.03
2022-10-03T13:38:55.228Z,2.63
2022-10-03T13:41:34.884Z,3.40
2022-10-03T13:44:10.885Z,2.25
2022-10-03T13:46:53.442Z,2.55
2022-10-03T16:03:03.358Z,3.00
2022-10-03T16:05:32.232Z,3.70
2022-10-03T16:08:08.743Z,7.22
2022-10-03T16:10:43.409Z,5.57
2022-10-03T16:13:29.967Z,4.75
2022-10-03T16:16:19.908Z,3.08
2022-10-03T16:18:56.802Z,5.65
2022-10-03T16:21:47.118Z,3.00
2022-10-03T16:24:31.590Z,7.03
2022-10-03T16:27:16.879Z,4.47
2022-10-03T16:29:54.983Z,4.57
2022-10-03T16:32:28.231Z,5.68
2022-10-03T16:35:03.398Z,6.03
2022-10-03T16:37:33.272Z,5.70
2022-10-03T16:40:05.505Z,6.43
2022-10-03T16:42:43.996Z,7.80
2022-10-03T16:45:26.400Z,7.95
2022-10-03T16:48:18.296Z,6.72
2022-10-03T16:50:54.418Z,8.07
2022-10-03T16:53:24.404Z,6.70
2022-10-03T16:56:00.472Z,6.50
2022-10-03T16:58:34.300Z,7.38
2022-10-03T17:01:26.453Z,6.07
2022-10-03T17:04:03.831Z,7.10
2022-10-03T17:06:39.088Z,6.72
2022-10-03T17:09:22.684Z,6.68
2022-10-03T17:11:58.312Z,7.50
2022-10-03T17:14:36.633Z,7.05
2022-10-03T17:17:17.093Z,7.43
2022-10-03T17:19:58.378Z,6.38
2022-10-03T17:22:37.736Z,6.13
2022-10-03T17:25:35.085Z,6.15
2022-10-03T17:28:07.513Z,5.93
2022-10-03T17:30:46.134Z,17.90
2022-10-03T17:33:23.584Z,9.68
2022-10-03T17:36:08.310Z,8.10
2022-10-03T17:38:52.651Z,7.20
2022-10-03T17:41:28.368Z,6.82
2022-10-03T17:44:20.894Z,7.22
2022-10-03T17:47:04.128Z,7.65
2022-10-03T17:49:52.415Z,7.25
2022-10-03T17:52:24.569Z,7.47
2022-10-03T17:54:59.659Z,8.10
2022-10-03T17:57:37.529Z,10.50
2022-10-03T18:00:21.200Z,9.27
2022-10-03T18:03:02.187Z,8.00
2022-10-03T18:05:37.713Z,9.60
2022-10-03T18:08:14.138Z,7.82
2022-10-03T18:10:52.339Z,6.00
2022-10-03T18:13:29.576Z,5.95
2022-10-03T18:16:22.411Z,8.68
2022-10-03T18:19:12.059Z,5.88
2022-10-03T18:22:09.598Z,5.90
2022-10-03T18:25:24.562Z,7.40
2022-10-03T18:28:21.150Z,7.32
2022-10-03T18:30:57.654Z,7.15
2022-10-03T18:33:33.517Z,9.40
2022-10-03T18:36:12.546Z,4.80
2022-10-03T18:38:46.303Z,6.45
2022-10-03T18:41:19.248Z,6.95
2022-10-03T18:43:58.869Z,5.85
2022-10-03T18:46:36.583Z,8.60
2022-10-03T18:49:35.169Z,9.93
2022-10-03T18:52:18.356Z,8.43
2022-10-03T18:55:00.655Z,10.35
2022-10-03T18:57:38.938Z,7.85
2022-10-03T19:00:20.224Z,9.43
2022-10-03T19:02:55.401Z,8.25
2022-10-03T19:05:31.855Z,8.65
2022-10-03T19:08:11.460Z,6.68
2022-10-03T19:10:46.512Z,7.90
2022-10-03T19:13:31.241Z,9.52
2022-10-03T19:16:36.841Z,8.63
2022-10-03T19:19:13.765Z,6.45
2022-10-03T19:21:44.033Z,9.43
2022-10-03T19:24:34.531Z,7.47
2022-10-03T19:27:16.995Z,7.88
2022-10-03T19:29:51.155Z,10.02
2022-10-03T19:32:30.298Z,9.40
2022-10-03T19:35:05.776Z,10.52
2022-10-03T19:37:45.926Z,8.90
2022-10-03T19:40:32.077Z,9.95
2022-10-03T19:43:44.623Z,11.68
2022-10-03T19:46:41.180Z,7.82
2022-10-03T19:49:46.698Z,9.70
2022-10-03T19:52:41.627Z,11.75
2022-10-03T19:55:16.430Z,8.68
2022-10-03T19:57:51.938Z,9.32
2022-10-03T20:00:29.262Z,11.20
2022-10-03T20:03:13.961Z,15.05
2022-10-03T20:06:07.287Z,11.02
2022-10-03T20:08:45.672Z,9.32
2022-10-03T20:11:39.892Z,8.82
2022-10-03T20:14:16.262Z,10.80
2022-10-03T20:16:49.903Z,9.13
2022-10-03T20:19:24.917Z,10.90
2022-10-03T20:21:57.834Z,9.05
2022-10-03T20:24:35.485Z,9.68
2022-10-03T20:27:25.685Z,11.65
2022-10-03T20:30:08.306Z,8.63
2022-10-03T20:32:44.421Z,10.23
2022-10-03T20:35:20.552Z,10.43
2022-10-03T20:37:57.382Z,11.02
2022-10-03T20:40:35.856Z,9.80
2022-10-03T20:43:41.817Z,10.50
2022-10-03T20:46:25.736Z,10.18
2022-10-03T20:49:31.660Z,10.35
2022-10-03T20:52:05.433Z,10.07
2022-10-03T20:54:50.066Z,10.48
2022-10-03T20:57:24.545Z,14.02
2022-10-03T21:00:04.517Z,13.70
2022-10-03T21:02:43.286Z,13.75
2022-10-03T21:05:23.025Z,10.95
2022-10-03T21:07:57.462Z,11.32
2022-10-03T21:10:33.000Z,13.95
2022-10-03T21:13:06.189Z,13.50
2022-10-03T21:15:47.579Z,10.77
2022-10-03T21:18:23.752Z,12.80
2022-10-03T21:21:06.230Z,12.32
2022-10-03T21:23:44.743Z,12.43
2022-10-03T21:26:21.498Z,11.55
2022-10-03T21:28:50.349Z,13.30
2022-10-03T21:31:43.133Z,10.98
2022-10-03T21:34:26.442Z,13.43
2022-10-03T21:37:12.263Z,12.35
2022-10-03T21:40:04.262Z,14.52
2022-10-03T21:42:46.151Z,12.57
2022-10-03T21:45:31.820Z,11.15
2022-10-03T21:48:11.255Z,12.10
2022-10-03T21:50:53.770Z,12.18
2022-10-03T21:53:38.746Z,10.23
2022-10-03T21:56:35.997Z,14.38
2022-10-03T21:59:37.324Z,13.27
2022-10-03T22:02:20.115Z,9.82
2022-10-03T22:04:57.585Z,10.35
2022-10-03T22:07:38.732Z,11.38
2022-10-03T22:10:21.422Z,10.70
2022-10-03T22:12:54.553Z,11.27
2022-10-03T22:15:38.656Z,11.00
2022-10-03T22:18:14.796Z,11.75
2022-10-03T22:20:57.646Z,10.70
2022-10-03T22:23:42.749Z,10.63
2022-10-03T22:26:24.185Z,10.35
2022-10-03T22:29:05.317Z,11.77
2022-10-03T22:31:46.016Z,11.18
2022-10-03T22:34:34.003Z,9.98
2022-10-03T22:37:03.707Z,12.85
2022-10-03T22:39:36.830Z,12.57
2022-10-03T22:42:08.013Z,12.77
2022-10-03T22:44:43.317Z,11.45
2022-10-03T22:47:20.127Z,13.43
2022-10-03T22:49:58.715Z,10.00
2022-10-03T22:52:33.293Z,12.38
2022-10-03T22:55:05.544Z,10.07
2022-10-03T22:57:36.094Z,9.20
2022-10-03T23:00:10.635Z,12.27
2022-10-03T23:02:49.877Z,10.50
2022-10-03T23:05:40.237Z,9.65
2022-10-03T23:08:22.079Z,11.32
2022-10-03T23:10:59.812Z,10.30
2022-10-03T23:13:38.765Z,7.70
2022-10-03T23:16:28.866Z,10.48
2022-10-03T23:19:18.108Z,8.23
2022-10-03T23:21:49.328Z,10.23
2022-10-03T23:24:28.434Z,8.93
2022-10-03T23:27:43.152Z,8.35
2022-10-03T23:30:50.846Z,8.50
2022-10-03T23:33:56.521Z,9.50
2022-10-03T23:36:26.466Z,7.10
2022-10-03T23:39:02.320Z,7.55
2022-10-03T23:41:56.361Z,11.00
2022-10-03T23:44:49.481Z,12.65
2022-10-03T23:47:24.696Z,9.82
2022-10-03T23:49:55.526Z,10.05
2022-10-03T23:52:31.799Z,10.35
2022-10-03T23:55:08.118Z,8.80
2022-10-03T23:57:43.172Z,7.72
